sensor_id;sensor_type;location;lat;lon;timestamp;pressure;altitude;pressure_sealevel;temperature;humidity
80202;BME280;69521;54.454;9.928;2024-03-07T00:01:20;102934.25;;;3.27;92.27
80202;BME280;69521;54.454;9.928;2024-03-07T00:03:45;102937.75;;;3.29;92.51
80202;BME280;69521;54.454;9.928;2024-03-07T00:06:11;102942.16;;;3.30;92.61
80202;BME280;69521;54.454;9.928;2024-03-07T00:11:40;102939.41;;;3.33;92.42
80202;BME280;69521;54.454;9.928;2024-03-07T00:14:21;102942.97;;;3.32;92.53
80202;BME280;69521;54.454;9.928;2024-03-07T00:16:46;102948.38;;;3.29;92.11
80202;BME280;69521;54.454;9.928;2024-03-07T00:19:12;102938.00;;;3.20;91.67
80202;BME280;69521;54.454;9.928;2024-03-07T00:25:02;102937.03;;;3.23;91.48
80202;BME280;69521;54.454;9.928;2024-03-07T00:27:51;102938.09;;;3.17;91.77
80202;BME280;69521;54.454;9.928;2024-03-07T00:30:19;102944.13;;;3.24;91.15
80202;BME280;69521;54.454;9.928;2024-03-07T00:32:45;102942.38;;;3.23;91.50
80202;BME280;69521;54.454;9.928;2024-03-07T00:38:33;102936.50;;;3.10;91.16
80202;BME280;69521;54.454;9.928;2024-03-07T00:47:43;102927.91;;;3.00;91.26
80202;BME280;69521;54.454;9.928;2024-03-07T00:50:08;102926.03;;;3.04;90.89
80202;BME280;69521;54.454;9.928;2024-03-07T01:02:40;102922.63;;;2.99;90.55
80202;BME280;69521;54.454;9.928;2024-03-07T01:05:09;102925.34;;;2.97;91.59
80202;BME280;69521;54.454;9.928;2024-03-07T01:07:35;102919.06;;;3.00;90.36
80202;BME280;69521;54.454;9.928;2024-03-07T01:10:02;102920.63;;;3.07;89.90
80202;BME280;69521;54.454;9.928;2024-03-07T01:12:28;102916.38;;;3.01;90.88
80202;BME280;69521;54.454;9.928;2024-03-07T01:14:55;102917.16;;;3.05;90.64
80202;BME280;69521;54.454;9.928;2024-03-07T01:17:22;102916.38;;;3.01;90.50
80202;BME280;69521;54.454;9.928;2024-03-07T01:19:47;102915.50;;;3.01;89.93
80202;BME280;69521;54.454;9.928;2024-03-07T01:22:13;102912.91;;;2.98;89.77
80202;BME280;69521;54.454;9.928;2024-03-07T01:24:38;102912.88;;;2.99;89.84
80202;BME280;69521;54.454;9.928;2024-03-07T01:27:05;102922.81;;;2.93;90.28
80202;BME280;69521;54.454;9.928;2024-03-07T01:29:30;102921.84;;;2.95;89.77
80202;BME280;69521;54.454;9.928;2024-03-07T01:31:55;102919.19;;;2.95;90.68
80202;BME280;69521;54.454;9.928;2024-03-07T01:34:21;102913.09;;;2.92;90.25
80202;BME280;69521;54.454;9.928;2024-03-07T01:36:46;102923.75;;;2.90;89.37
80202;BME280;69521;54.454;9.928;2024-03-07T01:39:11;102914.06;;;2.87;89.80
80202;BME280;69521;54.454;9.928;2024-03-07T01:41:38;102914.88;;;2.91;89.40
80202;BME280;69521;54.454;9.928;2024-03-07T01:44:03;102917.81;;;2.80;88.65
80202;BME280;69521;54.454;9.928;2024-03-07T01:46:29;102912.41;;;2.83;88.53
80202;BME280;69521;54.454;9.928;2024-03-07T01:48:55;102916.97;;;2.78;88.27
80202;BME280;69521;54.454;9.928;2024-03-07T01:51:21;102918.59;;;2.84;89.10
80202;BME280;69521;54.454;9.928;2024-03-07T01:53:49;102918.59;;;2.84;89.35
80202;BME280;69521;54.454;9.928;2024-03-07T01:56:16;102915.16;;;2.80;88.56
80202;BME280;69521;54.454;9.928;2024-03-07T01:58:42;102918.66;;;2.82;87.97
80202;BME280;69521;54.454;9.928;2024-03-07T02:01:08;102917.72;;;2.83;88.59
80202;BME280;69521;54.454;9.928;2024-03-07T02:03:33;102917.25;;;2.68;87.81
80202;BME280;69521;54.454;9.928;2024-03-07T02:06:01;102918.97;;;2.70;88.13
80202;BME280;69521;54.454;9.928;2024-03-07T02:08:27;102919.00;;;2.69;87.43
80202;BME280;69521;54.454;9.928;2024-03-07T02:10:53;102915.56;;;2.65;87.95
80202;BME280;69521;54.454;9.928;2024-03-07T02:13:18;102916.72;;;2.53;87.77
80202;BME280;69521;54.454;9.928;2024-03-07T02:15:43;102919.25;;;2.58;87.37
80202;BME280;69521;54.454;9.928;2024-03-07T02:18:09;102909.59;;;2.54;86.89
80202;BME280;69521;54.454;9.928;2024-03-07T02:20:34;102908.69;;;2.55;87.19
80202;BME280;69521;54.454;9.928;2024-03-07T02:23:00;102921.09;;;2.54;86.91
80202;BME280;69521;54.454;9.928;2024-03-07T02:25:25;102915.78;;;2.54;85.96
80202;BME280;69521;54.454;9.928;2024-03-07T02:27:50;102910.72;;;2.45;86.01
80202;BME280;69521;54.454;9.928;2024-03-07T02:30:16;102908.16;;;2.41;86.23
80202;BME280;69521;54.454;9.928;2024-03-07T02:32:43;102913.66;;;2.33;85.65
80202;BME280;69521;54.454;9.928;2024-03-07T02:35:14;102911.06;;;2.32;86.42
80202;BME280;69521;54.454;9.928;2024-03-07T02:37:40;102905.69;;;2.33;86.60
80202;BME280;69521;54.454;9.928;2024-03-07T02:40:06;102907.28;;;2.40;86.52
80202;BME280;69521;54.454;9.928;2024-03-07T02:42:32;102907.19;;;2.45;86.71
80202;BME280;69521;54.454;9.928;2024-03-07T02:44:57;102909.00;;;2.43;86.30
80202;BME280;69521;54.454;9.928;2024-03-07T02:47:23;102908.09;;;2.44;87.03
80202;BME280;69521;54.454;9.928;2024-03-07T02:49:48;102903.78;;;2.40;85.59
80202;BME280;69521;54.454;9.928;2024-03-07T02:52:14;102904.75;;;2.36;84.93
80202;BME280;69521;54.454;9.928;2024-03-07T02:54:39;102899.53;;;2.33;85.11
80202;BME280;69521;54.454;9.928;2024-03-07T02:57:05;102904.97;;;2.27;83.74
80202;BME280;69521;54.454;9.928;2024-03-07T02:59:30;102903.13;;;2.30;85.13
80202;BME280;69521;54.454;9.928;2024-03-07T03:01:57;102900.50;;;2.29;84.31
80202;BME280;69521;54.454;9.928;2024-03-07T03:04:22;102890.03;;;2.22;84.92
80202;BME280;69521;54.454;9.928;2024-03-07T03:06:48;102905.28;;;2.14;84.52
80202;BME280;69521;54.454;9.928;2024-03-07T03:09:13;102900.75;;;2.18;85.21
80202;BME280;69521;54.454;9.928;2024-03-07T03:11:45;102903.38;;;2.19;85.64
80202;BME280;69521;54.454;9.928;2024-03-07T03:14:12;102899.81;;;2.20;85.75
80202;BME280;69521;54.454;9.928;2024-03-07T03:16:41;102899.19;;;2.09;86.01
80202;BME280;69521;54.454;9.928;2024-03-07T03:19:07;102895.56;;;2.13;84.03
80202;BME280;69521;54.454;9.928;2024-03-07T03:21:34;102901.78;;;2.12;84.86
80202;BME280;69521;54.454;9.928;2024-03-07T03:23:59;102894.66;;;2.14;84.69
80202;BME280;69521;54.454;9.928;2024-03-07T03:26:24;102897.34;;;2.13;84.81
80202;BME280;69521;54.454;9.928;2024-03-07T03:28:50;102896.31;;;2.18;86.05
80202;BME280;69521;54.454;9.928;2024-03-07T03:31:15;102893.81;;;2.12;85.49
80202;BME280;69521;54.454;9.928;2024-03-07T03:33:41;102883.25;;;2.11;85.20
80202;BME280;69521;54.454;9.928;2024-03-07T03:36:07;102891.94;;;2.17;84.97
80202;BME280;69521;54.454;9.928;2024-03-07T03:38:32;102885.78;;;2.15;84.84
80202;BME280;69521;54.454;9.928;2024-03-07T03:40:57;102889.22;;;2.19;85.55
80202;BME280;69521;54.454;9.928;2024-03-07T03:43:23;102895.50;;;2.16;84.87
80202;BME280;69521;54.454;9.928;2024-03-07T03:45:48;102893.72;;;2.17;85.31
80202;BME280;69521;54.454;9.928;2024-03-07T03:48:14;102892.81;;;2.18;85.81
80202;BME280;69521;54.454;9.928;2024-03-07T03:50:39;102895.53;;;2.15;85.19
80202;BME280;69521;54.454;9.928;2024-03-07T03:53:05;102901.03;;;2.07;85.18
80202;BME280;69521;54.454;9.928;2024-03-07T03:55:31;102896.47;;;2.12;85.71
80202;BME280;69521;54.454;9.928;2024-03-07T03:57:57;102898.22;;;2.13;85.37
80202;BME280;69521;54.454;9.928;2024-03-07T04:00:23;102907.94;;;2.14;84.91
80202;BME280;69521;54.454;9.928;2024-03-07T04:02:48;102901.72;;;2.15;84.87
80202;BME280;69521;54.454;9.928;2024-03-07T04:05:15;102898.28;;;2.10;84.89
80202;BME280;69521;54.454;9.928;2024-03-07T04:07:41;102898.22;;;2.13;85.87
80202;BME280;69521;54.454;9.928;2024-03-07T04:10:07;102893.81;;;2.12;86.07
80202;BME280;69521;54.454;9.928;2024-03-07T04:12:37;102898.16;;;2.16;85.13
80202;BME280;69521;54.454;9.928;2024-03-07T04:17:32;102896.25;;;2.21;83.82
80202;BME280;69521;54.454;9.928;2024-03-07T04:19:59;102894.50;;;2.20;84.48
80202;BME280;69521;54.454;9.928;2024-03-07T04:22:25;102892.97;;;2.10;84.29
80202;BME280;69521;54.454;9.928;2024-03-07T04:24:51;102887.63;;;2.12;83.17
80202;BME280;69521;54.454;9.928;2024-03-07T04:27:19;102885.03;;;2.10;83.64
80202;BME280;69521;54.454;9.928;2024-03-07T04:29:45;102887.72;;;2.09;83.38
80202;BME280;69521;54.454;9.928;2024-03-07T04:32:13;102890.25;;;2.13;83.59
80202;BME280;69521;54.454;9.928;2024-03-07T04:34:38;102882.28;;;2.13;84.10
80202;BME280;69521;54.454;9.928;2024-03-07T04:37:04;102888.59;;;2.09;85.43
80202;BME280;69521;54.454;9.928;2024-03-07T04:39:30;102881.56;;;2.07;85.32
80202;BME280;69521;54.454;9.928;2024-03-07T04:42:03;102883.28;;;2.09;84.36
80202;BME280;69521;54.454;9.928;2024-03-07T04:44:30;102878.84;;;2.10;83.02
80202;BME280;69521;54.454;9.928;2024-03-07T04:49:22;102882.28;;;2.13;82.52
80202;BME280;69521;54.454;9.928;2024-03-07T04:51:50;102887.75;;;2.07;82.70
80202;BME280;69521;54.454;9.928;2024-03-07T04:54:16;102878.94;;;2.05;81.84
80202;BME280;69521;54.454;9.928;2024-03-07T04:56:41;102882.50;;;2.04;82.34
80202;BME280;69521;54.454;9.928;2024-03-07T04:59:06;102876.38;;;2.02;82.55
80202;BME280;69521;54.454;9.928;2024-03-07T05:01:32;102879.88;;;2.03;83.12
80202;BME280;69521;54.454;9.928;2024-03-07T05:03:57;102877.16;;;2.06;82.25
80202;BME280;69521;54.454;9.928;2024-03-07T05:06:22;102881.72;;;2.01;81.57
80202;BME280;69521;54.454;9.928;2024-03-07T05:08:48;102879.09;;;1.99;81.25
80202;BME280;69521;54.454;9.928;2024-03-07T05:11:13;102879.09;;;1.99;81.16
80202;BME280;69521;54.454;9.928;2024-03-07T05:13:38;102875.63;;;1.96;80.96
80202;BME280;69521;54.454;9.928;2024-03-07T05:16:07;102874.91;;;1.89;81.08
80202;BME280;69521;54.454;9.928;2024-03-07T05:18:32;102877.63;;;1.86;80.95
80202;BME280;69521;54.454;9.928;2024-03-07T05:20:58;102877.69;;;1.83;81.94
80202;BME280;69521;54.454;9.928;2024-03-07T05:23:43;102886.53;;;1.83;82.21
80202;BME280;69521;54.454;9.928;2024-03-07T05:26:08;102880.47;;;1.78;82.83
80202;BME280;69521;54.454;9.928;2024-03-07T05:28:34;102887.44;;;1.82;83.57
80202;BME280;69521;54.454;9.928;2024-03-07T05:30:59;102887.44;;;1.82;81.53
80202;BME280;69521;54.454;9.928;2024-03-07T05:33:24;102888.25;;;1.86;81.18
80202;BME280;69521;54.454;9.928;2024-03-07T05:35:50;102883.81;;;1.86;81.35
80202;BME280;69521;54.454;9.928;2024-03-07T05:38:15;102891.66;;;1.91;81.07
80202;BME280;69521;54.454;9.928;2024-03-07T05:40:43;102898.03;;;1.84;80.49
80202;BME280;69521;54.454;9.928;2024-03-07T05:43:09;102893.59;;;1.84;81.59
80202;BME280;69521;54.454;9.928;2024-03-07T05:45:34;102900.66;;;1.85;80.99
80202;BME280;69521;54.454;9.928;2024-03-07T05:48:14;102900.53;;;1.90;81.61
80202;BME280;69521;54.454;9.928;2024-03-07T05:50:39;102899.66;;;1.89;81.36
80202;BME280;69521;54.454;9.928;2024-03-07T05:53:05;102903.16;;;1.91;80.42
80202;BME280;69521;54.454;9.928;2024-03-07T05:55:33;102898.84;;;1.87;80.62
80202;BME280;69521;54.454;9.928;2024-03-07T05:57:58;102906.06;;;1.81;80.79
80202;BME280;69521;54.454;9.928;2024-03-07T06:00:23;102900.56;;;1.88;79.93
80202;BME280;69521;54.454;9.928;2024-03-07T06:02:53;102907.69;;;1.86;79.52
80202;BME280;69521;54.454;9.928;2024-03-07T06:05:18;102891.81;;;1.85;80.28
80202;BME280;69521;54.454;9.928;2024-03-07T06:07:44;102900.75;;;1.81;80.48
80202;BME280;69521;54.454;9.928;2024-03-07T06:10:11;102901.59;;;1.83;80.07
80202;BME280;69521;54.454;9.928;2024-03-07T06:12:36;102896.31;;;1.81;78.78
80202;BME280;69521;54.454;9.928;2024-03-07T06:15:05;102905.91;;;1.87;80.27
80202;BME280;69521;54.454;9.928;2024-03-07T06:17:31;102908.06;;;2.08;83.01
80202;BME280;69521;54.454;9.928;2024-03-07T06:19:56;102907.38;;;2.00;79.24
80202;BME280;69521;54.454;9.928;2024-03-07T06:22:21;102910.06;;;1.99;79.30
80202;BME280;69521;54.454;9.928;2024-03-07T06:24:47;102905.63;;;1.99;78.91
80202;BME280;69521;54.454;9.928;2024-03-07T06:27:13;102916.25;;;1.99;78.63
80202;BME280;69521;54.454;9.928;2024-03-07T06:29:51;102909.13;;;2.01;79.16
80202;BME280;69521;54.454;9.928;2024-03-07T06:32:18;102911.88;;;1.97;78.46
80202;BME280;69521;54.454;9.928;2024-03-07T06:34:44;102910.88;;;2.02;77.50
80202;BME280;69521;54.454;9.928;2024-03-07T06:37:09;102903.81;;;2.01;78.38
80202;BME280;69521;54.454;9.928;2024-03-07T06:39:34;102910.75;;;2.07;79.59
80202;BME280;69521;54.454;9.928;2024-03-07T06:42:00;102913.38;;;2.08;79.80
80202;BME280;69521;54.454;9.928;2024-03-07T06:44:25;102914.22;;;2.10;79.51
80202;BME280;69521;54.454;9.928;2024-03-07T06:46:52;102921.34;;;2.08;78.34
80202;BME280;69521;54.454;9.928;2024-03-07T06:49:17;102919.31;;;2.19;79.65
80202;BME280;69521;54.454;9.928;2024-03-07T06:51:42;102911.81;;;2.37;80.21
80202;BME280;69521;54.454;9.928;2024-03-07T06:54:09;102918.94;;;2.35;79.51
80202;BME280;69521;54.454;9.928;2024-03-07T06:56:35;102909.50;;;2.23;80.23
80202;BME280;69521;54.454;9.928;2024-03-07T06:59:01;102912.88;;;2.30;80.50
80202;BME280;69521;54.454;9.928;2024-03-07T07:01:29;102909.50;;;2.23;79.93
80202;BME280;69521;54.454;9.928;2024-03-07T07:03:55;102916.28;;;2.35;80.38
80202;BME280;69521;54.454;9.928;2024-03-07T07:06:22;102910.28;;;2.27;78.88
80202;BME280;69521;54.454;9.928;2024-03-07T07:08:47;102910.00;;;2.39;77.97
80202;BME280;69521;54.454;9.928;2024-03-07T07:11:12;102902.19;;;2.33;77.54
80202;BME280;69521;54.454;9.928;2024-03-07T07:13:38;102904.75;;;2.36;78.74
80202;BME280;69521;54.454;9.928;2024-03-07T07:16:04;102902.97;;;2.36;80.00
80202;BME280;69521;54.454;9.928;2024-03-07T07:18:29;102907.06;;;2.49;79.03
80202;BME280;69521;54.454;9.928;2024-03-07T07:20:55;102907.00;;;2.52;77.55
80202;BME280;69521;54.454;9.928;2024-03-07T07:23:21;102898.09;;;2.53;77.10
80202;BME280;69521;54.454;9.928;2024-03-07T07:25:47;102907.94;;;2.50;76.56
80202;BME280;69521;54.454;9.928;2024-03-07T07:28:12;102908.78;;;2.52;78.03
80202;BME280;69521;54.454;9.928;2024-03-07T07:30:38;102902.66;;;2.48;77.78
80202;BME280;69521;54.454;9.928;2024-03-07T07:33:04;102904.09;;;2.63;77.92
80202;BME280;69521;54.454;9.928;2024-03-07T07:35:29;102908.41;;;2.67;78.22
80202;BME280;69521;54.454;9.928;2024-03-07T07:37:56;102912.81;;;2.68;76.56
80202;BME280;69521;54.454;9.928;2024-03-07T07:40:22;102908.19;;;2.76;78.07
80202;BME280;69521;54.454;9.928;2024-03-07T07:42:52;102906.38;;;2.77;76.81
80202;BME280;69521;54.454;9.928;2024-03-07T07:45:19;102912.47;;;2.82;77.72
80202;BME280;69521;54.454;9.928;2024-03-07T07:47:48;102912.47;;;2.82;77.85
80202;BME280;69521;54.454;9.928;2024-03-07T07:50:21;102905.19;;;2.88;78.84
80202;BME280;69521;54.454;9.928;2024-03-07T07:52:52;102903.72;;;2.77;78.17
80202;BME280;69521;54.454;9.928;2024-03-07T07:55:28;102906.47;;;2.74;77.99
80202;BME280;69521;54.454;9.928;2024-03-07T07:57:55;102903.91;;;2.71;80.07
80202;BME280;69521;54.454;9.928;2024-03-07T08:00:23;102891.31;;;2.77;79.65
80202;BME280;69521;54.454;9.928;2024-03-07T08:02:53;102895.72;;;2.78;78.98
80202;BME280;69521;54.454;9.928;2024-03-07T08:05:20;102903.50;;;2.86;80.19
80202;BME280;69521;54.454;9.928;2024-03-07T08:07:47;102901.63;;;2.90;79.82
80202;BME280;69521;54.454;9.928;2024-03-07T08:10:14;102896.13;;;2.96;79.43
80202;BME280;69521;54.454;9.928;2024-03-07T08:12:40;102889.00;;;2.98;80.35
80202;BME280;69521;54.454;9.928;2024-03-07T08:15:09;102888.13;;;2.97;79.58
80202;BME280;69521;54.454;9.928;2024-03-07T08:17:34;102890.66;;;3.02;80.42
80202;BME280;69521;54.454;9.928;2024-03-07T08:20:00;102893.31;;;3.02;79.17
80202;BME280;69521;54.454;9.928;2024-03-07T08:22:25;102895.88;;;3.05;80.49
80202;BME280;69521;54.454;9.928;2024-03-07T08:24:51;102883.41;;;3.07;80.41
80202;BME280;69521;54.454;9.928;2024-03-07T08:27:17;102887.00;;;3.06;79.76
80202;BME280;69521;54.454;9.928;2024-03-07T08:29:43;102889.47;;;3.12;80.24
80202;BME280;69521;54.454;9.928;2024-03-07T08:32:08;102884.13;;;3.13;79.52
80202;BME280;69521;54.454;9.928;2024-03-07T08:34:33;102883.16;;;3.16;79.14
80202;BME280;69521;54.454;9.928;2024-03-07T08:36:59;102890.81;;;3.27;79.22
80202;BME280;69521;54.454;9.928;2024-03-07T08:39:24;102882.75;;;3.30;78.00
80202;BME280;69521;54.454;9.928;2024-03-07T08:41:49;102895.00;;;3.35;78.96
80202;BME280;69521;54.454;9.928;2024-03-07T08:44:15;102894.91;;;3.38;80.38
80202;BME280;69521;54.454;9.928;2024-03-07T08:46:40;102899.25;;;3.42;78.80
80202;BME280;69521;54.454;9.928;2024-03-07T08:49:06;102893.53;;;3.56;79.02
80202;BME280;69521;54.454;9.928;2024-03-07T08:51:32;102895.16;;;3.62;79.61
80202;BME280;69521;54.454;9.928;2024-03-07T08:53:57;102891.56;;;3.63;79.26
80202;BME280;69521;54.454;9.928;2024-03-07T08:56:23;102884.50;;;3.62;79.56
80202;BME280;69521;54.454;9.928;2024-03-07T08:58:48;102895.09;;;3.63;80.16
80202;BME280;69521;54.454;9.928;2024-03-07T09:01:13;102890.75;;;3.61;80.80
80202;BME280;69521;54.454;9.928;2024-03-07T09:03:39;102889.00;;;3.60;80.78
80202;BME280;69521;54.454;9.928;2024-03-07T09:06:04;102885.41;;;3.61;81.74
80202;BME280;69521;54.454;9.928;2024-03-07T09:08:30;102894.31;;;3.60;81.45
80202;BME280;69521;54.454;9.928;2024-03-07T09:10:56;102893.34;;;3.62;81.41
80202;BME280;69521;54.454;9.928;2024-03-07T09:13:21;102890.47;;;3.70;82.32
80202;BME280;69521;54.454;9.928;2024-03-07T09:15:47;102884.94;;;3.76;81.62
80202;BME280;69521;54.454;9.928;2024-03-07T09:18:12;102882.34;;;3.74;82.17
80202;BME280;69521;54.454;9.928;2024-03-07T09:20:38;102886.88;;;3.71;82.66
80202;BME280;69521;54.454;9.928;2024-03-07T09:23:03;102891.66;;;3.60;82.42
80202;BME280;69521;54.454;9.928;2024-03-07T09:25:29;102889.97;;;3.57;83.61
80202;BME280;69521;54.454;9.928;2024-03-07T09:27:58;102892.38;;;3.65;83.29
80202;BME280;69521;54.454;9.928;2024-03-07T09:30:25;102890.16;;;3.51;83.05
80202;BME280;69521;54.454;9.928;2024-03-07T09:32:52;102884.59;;;3.59;83.71
80202;BME280;69521;54.454;9.928;2024-03-07T09:35:20;102885.13;;;3.70;83.85
80202;BME280;69521;54.454;9.928;2024-03-07T09:37:46;102875.41;;;3.69;83.20
80202;BME280;69521;54.454;9.928;2024-03-07T09:40:12;102886.84;;;3.72;82.79
80202;BME280;69521;54.454;9.928;2024-03-07T09:42:47;102875.41;;;3.69;81.75
80202;BME280;69521;54.454;9.928;2024-03-07T09:45:13;102887.06;;;3.65;83.14
80202;BME280;69521;54.454;9.928;2024-03-07T09:47:40;102885.78;;;3.48;82.54
80202;BME280;69521;54.454;9.928;2024-03-07T09:50:06;102880.13;;;3.59;82.74
80202;BME280;69521;54.454;9.928;2024-03-07T09:52:33;102885.13;;;3.70;82.58
80202;BME280;69521;54.454;9.928;2024-03-07T09:55:01;102882.97;;;3.82;83.47
80202;BME280;69521;54.454;9.928;2024-03-07T09:57:26;102881.38;;;3.77;82.26
80202;BME280;69521;54.454;9.928;2024-03-07T09:59:54;102880.72;;;3.69;82.14
80202;BME280;69521;54.454;9.928;2024-03-07T10:02:20;102882.25;;;3.77;81.92
80202;BME280;69521;54.454;9.928;2024-03-07T10:04:51;102883.78;;;3.84;81.08
80202;BME280;69521;54.454;9.928;2024-03-07T10:07:18;102885.22;;;3.67;80.98
80202;BME280;69521;54.454;9.928;2024-03-07T10:09:44;102878.06;;;3.69;82.23
80202;BME280;69521;54.454;9.928;2024-03-07T10:12:10;102884.50;;;3.62;82.30
80202;BME280;69521;54.454;9.928;2024-03-07T10:14:57;102874.16;;;3.80;82.91
80202;BME280;69521;54.454;9.928;2024-03-07T10:17:24;102882.44;;;3.71;82.25
80202;BME280;69521;54.454;9.928;2024-03-07T10:19:51;102880.63;;;3.72;82.37
80202;BME280;69521;54.454;9.928;2024-03-07T10:22:18;102876.91;;;3.77;82.30
80202;BME280;69521;54.454;9.928;2024-03-07T10:24:54;102875.47;;;3.95;82.19
80202;BME280;69521;54.454;9.928;2024-03-07T10:27:20;102881.31;;;4.06;80.75
80202;BME280;69521;54.454;9.928;2024-03-07T10:29:51;102880.09;;;4.16;80.72
80202;BME280;69521;54.454;9.928;2024-03-07T10:32:21;102883.88;;;4.09;80.22
80202;BME280;69521;54.454;9.928;2024-03-07T10:34:47;102876.81;;;4.08;80.84
80202;BME280;69521;54.454;9.928;2024-03-07T10:37:14;102882.16;;;4.08;80.16
80202;BME280;69521;54.454;9.928;2024-03-07T10:39:46;102874.41;;;4.01;81.02
80202;BME280;69521;54.454;9.928;2024-03-07T10:42:13;102879.81;;;3.98;80.33
80202;BME280;69521;54.454;9.928;2024-03-07T10:44:43;102877.94;;;4.01;80.21
80202;BME280;69521;54.454;9.928;2024-03-07T10:47:15;102871.59;;;4.05;79.83
80202;BME280;69521;54.454;9.928;2024-03-07T10:49:48;102883.28;;;4.28;80.25
80202;BME280;69521;54.454;9.928;2024-03-07T10:52:27;102868.03;;;4.33;78.72
80202;BME280;69521;54.454;9.928;2024-03-07T10:58:37;102872.16;;;4.43;77.54
80202;BME280;69521;54.454;9.928;2024-03-07T11:01:07;102864.75;;;4.25;78.59
80202;BME280;69521;54.454;9.928;2024-03-07T11:03:36;102866.59;;;4.49;79.52
80202;BME280;69521;54.454;9.928;2024-03-07T11:06:02;102867.44;;;4.51;77.62
80202;BME280;69521;54.454;9.928;2024-03-07T11:08:33;102860.50;;;4.45;77.92
80202;BME280;69521;54.454;9.928;2024-03-07T11:11:00;102863.69;;;4.57;78.24
80202;BME280;69521;54.454;9.928;2024-03-07T11:13:25;102869.16;;;4.52;77.56
80202;BME280;69521;54.454;9.928;2024-03-07T11:15:52;102856.00;;;4.47;76.58
80202;BME280;69521;54.454;9.928;2024-03-07T11:18:22;102867.94;;;4.62;77.70
80202;BME280;69521;54.454;9.928;2024-03-07T11:20:49;102862.28;;;4.71;76.78
80202;BME280;69521;54.454;9.928;2024-03-07T11:23:28;102849.09;;;4.67;77.39
80202;BME280;69521;54.454;9.928;2024-03-07T11:26:10;102862.81;;;4.56;76.12
80202;BME280;69521;54.454;9.928;2024-03-07T11:28:40;102847.03;;;4.50;76.23
80202;BME280;69521;54.454;9.928;2024-03-07T11:31:12;102852.03;;;4.59;76.39
80202;BME280;69521;54.454;9.928;2024-03-07T11:33:38;102852.09;;;4.31;76.49
80202;BME280;69521;54.454;9.928;2024-03-07T11:36:10;102855.72;;;4.29;75.96
80202;BME280;69521;54.454;9.928;2024-03-07T11:38:47;102848.22;;;4.41;76.78
80202;BME280;69521;54.454;9.928;2024-03-07T11:41:13;102845.66;;;4.38;77.07
80202;BME280;69521;54.454;9.928;2024-03-07T11:43:40;102845.28;;;4.49;78.29
80202;BME280;69521;54.454;9.928;2024-03-07T11:46:07;102847.41;;;4.64;78.06
80202;BME280;69521;54.454;9.928;2024-03-07T11:48:39;102844.44;;;4.73;78.12
80202;BME280;69521;54.454;9.928;2024-03-07T11:51:06;102843.81;;;4.90;77.40
80202;BME280;69521;54.454;9.928;2024-03-07T11:53:36;102837.00;;;5.06;77.12
80202;BME280;69521;54.454;9.928;2024-03-07T11:56:02;102831.47;;;4.88;75.47
80202;BME280;69521;54.454;9.928;2024-03-07T11:58:37;102829.63;;;4.65;76.66
80202;BME280;69521;54.454;9.928;2024-03-07T12:01:05;102830.66;;;4.86;75.27
80202;BME280;69521;54.454;9.928;2024-03-07T12:03:36;102836.03;;;4.84;75.81
80202;BME280;69521;54.454;9.928;2024-03-07T12:06:02;102828.81;;;4.88;75.42
80202;BME280;69521;54.454;9.928;2024-03-07T12:08:28;102824.13;;;4.94;75.21
80202;BME280;69521;54.454;9.928;2024-03-07T12:10:54;102818.63;;;4.99;76.18
80202;BME280;69521;54.454;9.928;2024-03-07T12:13:22;102823.34;;;4.91;75.33
80202;BME280;69521;54.454;9.928;2024-03-07T12:15:49;102825.53;;;5.04;76.67
80202;BME280;69521;54.454;9.928;2024-03-07T12:18:17;102815.19;;;5.19;74.63
80202;BME280;69521;54.454;9.928;2024-03-07T12:20:45;102812.34;;;5.25;76.25
80202;BME280;69521;54.454;9.928;2024-03-07T12:23:16;102806.00;;;5.27;74.71
80202;BME280;69521;54.454;9.928;2024-03-07T12:25:45;102806.63;;;5.10;74.84
80202;BME280;69521;54.454;9.928;2024-03-07T12:28:12;102808.03;;;5.21;75.18
80202;BME280;69521;54.454;9.928;2024-03-07T12:30:51;102811.72;;;5.17;74.78
80202;BME280;69521;54.454;9.928;2024-03-07T12:33:18;102809.41;;;5.07;74.78
80202;BME280;69521;54.454;9.928;2024-03-07T12:35:46;102799.34;;;4.91;76.44
80202;BME280;69521;54.454;9.928;2024-03-07T12:38:12;102811.19;;;5.07;76.83
80202;BME280;69521;54.454;9.928;2024-03-07T12:40:41;102808.75;;;5.01;75.13
80202;BME280;69521;54.454;9.928;2024-03-07T12:43:20;102801.41;;;5.07;76.16
80202;BME280;69521;54.454;9.928;2024-03-07T12:45:50;102789.31;;;5.22;76.90
80202;BME280;69521;54.454;9.928;2024-03-07T12:48:19;102796.94;;;5.08;75.47
80202;BME280;69521;54.454;9.928;2024-03-07T12:50:47;102799.13;;;4.97;75.81
80202;BME280;69521;54.454;9.928;2024-03-07T12:53:21;102802.91;;;5.15;75.89
80202;BME280;69521;54.454;9.928;2024-03-07T12:55:47;102791.34;;;4.91;75.16
80202;BME280;69521;54.454;9.928;2024-03-07T12:58:13;102794.13;;;4.88;76.36
80202;BME280;69521;54.454;9.928;2024-03-07T13:00:39;102785.09;;;4.92;76.76
80202;BME280;69521;54.454;9.928;2024-03-07T13:03:06;102786.59;;;4.99;76.56
80202;BME280;69521;54.454;9.928;2024-03-07T13:05:32;102782.78;;;5.06;76.17
80202;BME280;69521;54.454;9.928;2024-03-07T13:07:58;102782.56;;;5.12;75.55
80202;BME280;69521;54.454;9.928;2024-03-07T13:10:23;102775.69;;;4.82;75.91
80202;BME280;69521;54.454;9.928;2024-03-07T13:12:51;102788.94;;;5.08;77.39
80202;BME280;69521;54.454;9.928;2024-03-07T13:15:20;102781.19;;;5.25;77.27
80202;BME280;69521;54.454;9.928;2024-03-07T13:17:47;102768.00;;;5.44;75.28
80202;BME280;69521;54.454;9.928;2024-03-07T13:20:14;102773.56;;;5.38;75.21
80202;BME280;69521;54.454;9.928;2024-03-07T13:22:41;102772.13;;;5.29;74.89
80202;BME280;69521;54.454;9.928;2024-03-07T13:25:23;102757.38;;;5.19;75.23
80202;BME280;69521;54.454;9.928;2024-03-07T13:28:02;102769.34;;;5.54;74.93
80202;BME280;69521;54.454;9.928;2024-03-07T13:30:29;102760.66;;;5.49;74.50
80202;BME280;69521;54.454;9.928;2024-03-07T13:32:59;102760.97;;;5.63;74.77
80202;BME280;69521;54.454;9.928;2024-03-07T13:35:25;102763.81;;;5.81;73.86